Time;durP1;ratioP1;P1;durP2;ratioP2;P2;SDS_P1;SDS_P2;PMS_P1;PMS_P2;Temp;Humidity;BMP_temperature;BMP_pressure;BME280_temperature;BME280_humidity;BME280_pressure;Samples;Min_cycle;Max_cycle;Signal;HPM_P1;HPM_P2
2023/05/25 00:00:19;;;;;;;11.55;5.25;;;11.80;99.90;;;;;;5055172;28;20079;-76
2023/05/25 00:02:45;;;;;;;10.10;4.70;;;11.70;99.90;;;;;;5039209;28;20041;-78
2023/05/25 00:05:12;;;;;;;16.88;5.10;;;11.70;99.90;;;;;;5033223;28;20081;-76
2023/05/25 00:07:38;;;;;;;11.88;5.05;;;11.70;99.90;;;;;;5021706;28;20084;-78
2023/05/25 00:10:07;;;;;;;11.68;4.72;;;11.70;99.90;;;;;;5056784;28;20033;-76
2023/05/25 00:12:33;;;;;;;9.25;4.57;;;11.70;99.90;;;;;;5069268;28;20624;-78
2023/05/25 00:14:59;;;;;;;11.38;4.70;;;11.70;99.90;;;;;;5055989;28;20518;-77
2023/05/25 00:17:28;;;;;;;10.85;4.80;;;11.70;99.90;;;;;;5042284;28;20620;-78
2023/05/25 00:19:56;;;;;;;10.95;4.32;;;10.80;99.90;;;;;;5008800;28;20048;-75
2023/05/25 00:22:22;;;;;;;14.98;4.82;;;11.60;99.90;;;;;;5057213;28;20053;-75
2023/05/25 00:24:51;;;;;;;16.35;5.90;;;11.60;99.90;;;;;;5038370;28;20268;-78
2023/05/25 00:27:20;;;;;;;11.23;5.22;;;11.60;99.90;;;;;;5057181;28;20080;-76
2023/05/25 00:29:46;;;;;;;11.95;5.45;;;11.60;99.90;;;;;;5041674;28;20532;-76
2023/05/25 00:32:12;;;;;;;14.95;5.82;;;11.60;99.90;;;;;;4997222;28;20044;-76
2023/05/25 00:34:40;;;;;;;10.85;5.22;;;11.60;99.90;;;;;;5026388;28;20076;-76
2023/05/25 00:37:06;;;;;;;11.27;5.30;;;11.60;99.90;;;;;;5023690;28;20056;-77
2023/05/25 00:39:31;;;;;;;12.82;5.10;;;11.60;99.90;;;;;;5038817;28;20048;-76
2023/05/25 00:41:59;;;;;;;10.80;4.78;;;11.60;99.90;;;;;;5039313;28;20044;-76
2023/05/25 00:44:26;;;;;;;14.95;5.15;;;11.50;99.90;;;;;;5021755;28;20041;-77
2023/05/25 00:46:55;;;;;;;15.48;5.95;;;11.50;99.90;;;;;;5038370;28;20100;-77
2023/05/25 00:49:24;;;;;;;14.35;5.10;;;10.80;99.90;;;;;;5021108;28;20037;-77
2023/05/25 00:51:53;;;;;;;11.95;5.28;;;11.50;99.90;;;;;;5022745;28;20735;-76
2023/05/25 00:54:19;;;;;;;8.90;5.05;;;10.50;99.90;;;;;;5022930;28;20048;-76
2023/05/25 00:56:55;;;;;;;14.63;5.38;;;11.50;99.90;;;;;;5040449;28;20136;-76
2023/05/25 00:59:39;;;;;;;13.73;5.10;;;11.50;99.90;;;;;;5041387;28;20048;-78
2023/05/25 01:02:08;;;;;;;11.40;5.07;;;11.60;99.90;;;;;;5042794;28;20045;-76
2023/05/25 01:04:38;;;;;;;13.82;5.63;;;11.60;99.90;;;;;;5040981;28;20063;-77
2023/05/25 01:07:05;;;;;;;14.63;5.88;;;11.60;99.90;;;;;;5061203;28;20044;-76
2023/05/25 01:09:39;;;;;;;15.77;5.53;;;11.60;99.90;;;;;;5039874;28;20069;-76
2023/05/25 01:12:06;;;;;;;14.38;5.85;;;11.60;99.90;;;;;;5041613;28;20075;-76
2023/05/25 01:14:34;;;;;;;10.88;6.07;;;12.00;99.90;;;;;;5040165;28;20072;-77
2023/05/25 01:17:02;;;;;;;11.85;5.70;;;11.60;99.90;;;;;;5040595;28;20041;-77
2023/05/25 01:19:32;;;;;;;8.98;5.93;;;11.60;99.90;;;;;;5040070;28;20376;-76
2023/05/25 01:22:18;;;;;;;14.35;6.32;;;11.50;99.90;;;;;;5023896;28;20049;-76
2023/05/25 01:24:50;;;;;;;;;;;11.50;99.90;;;;;;5040148;28;20050;-76
2023/05/25 01:27:23;;;;;;;13.38;5.72;;;11.50;99.90;;;;;;5074044;28;19928;-78
2023/05/25 01:29:49;;;;;;;19.67;6.15;;;11.50;99.90;;;;;;5021539;28;20037;-75
2023/05/25 01:32:23;;;;;;;13.18;5.18;;;11.50;99.90;;;;;;5039756;28;20045;-76
2023/05/25 01:34:51;;;;;;;12.20;5.68;;;11.40;99.90;;;;;;5039407;28;20041;-77
2023/05/25 01:37:19;;;;;;;13.35;5.95;;;11.40;99.90;;;;;;5040460;28;20056;-75
2023/05/25 01:39:48;;;;;;;12.18;5.43;;;11.40;99.90;;;;;;5028054;28;20029;-76
2023/05/25 01:42:15;;;;;;;13.25;5.03;;;11.30;99.90;;;;;;5025682;28;20056;-76
2023/05/25 01:44:41;;;;;;;12.68;5.53;;;11.30;99.90;;;;;;5075390;28;20574;-77
2023/05/25 01:47:19;;;;;;;15.85;6.38;;;11.30;99.90;;;;;;5043142;28;20124;-76
2023/05/25 01:50:17;;;;;;;12.32;5.88;;;11.30;99.90;;;;;;5042243;28;20574;-76
2023/05/25 01:52:55;;;;;;;12.52;5.93;;;11.20;99.90;;;;;;5044110;28;20068;-76
2023/05/25 01:55:25;;;;;;;13.05;6.05;;;11.00;99.90;;;;;;5025113;28;20064;-78
2023/05/25 01:57:56;;;;;;;16.80;5.82;;;9.90;99.90;;;;;;5043199;28;20373;-77
2023/05/25 02:00:26;;;;;;;15.98;6.05;;;11.00;99.90;;;;;;5040201;28;20132;-76
2023/05/25 02:02:53;;;;;;;12.45;5.78;;;11.00;99.90;;;;;;4991379;28;20446;-77
2023/05/25 02:05:20;;;;;;;10.18;5.28;;;11.00;99.90;;;;;;5005863;28;20056;-77
2023/05/25 02:07:46;;;;;;;11.70;5.43;;;10.90;99.90;;;;;;5039509;28;20053;-77
2023/05/25 02:10:11;;;;;;;15.77;5.10;;;10.90;99.90;;;;;;5022298;28;20240;-78
2023/05/25 02:12:37;;;;;;;11.43;5.10;;;10.90;99.90;;;;;;5024877;28;20045;-78
2023/05/25 02:15:03;;;;;;;10.63;5.20;;;10.90;99.90;;;;;;5055959;28;20076;-76
2023/05/25 02:17:32;;;;;;;12.88;5.45;;;10.90;99.90;;;;;;5041789;28;20045;-78
2023/05/25 02:20:01;;;;;;;14.95;5.20;;;10.90;99.90;;;;;;5039621;28;20057;-77
2023/05/25 02:22:26;;;;;;;14.32;5.55;;;10.80;99.90;;;;;;5058082;28;20499;-77
2023/05/25 02:24:58;;;;;;;11.55;5.45;;;10.80;99.90;;;;;;5040620;28;20083;-76
2023/05/25 02:27:24;;;;;;;13.32;5.32;;;10.80;99.90;;;;;;5024170;28;20140;-77
2023/05/25 02:29:55;;;;;;;15.20;5.28;;;10.70;99.90;;;;;;5023166;28;20454;-75
2023/05/25 02:32:23;;;;;;;13.50;4.88;;;10.70;99.90;;;;;;5040800;28;20033;-77
2023/05/25 02:34:49;;;;;;;11.25;5.22;;;10.70;99.90;;;;;;5008373;28;20102;-75
2023/05/25 02:37:16;;;;;;;12.85;5.47;;;10.60;99.90;;;;;;5036649;28;20578;-77
2023/05/25 02:39:42;;;;;;;10.27;4.72;;;10.60;99.90;;;;;;5024746;28;20049;-76
2023/05/25 02:42:07;;;;;;;11.18;5.32;;;10.60;99.90;;;;;;5039276;28;20043;-76
2023/05/25 02:44:33;;;;;;;13.48;5.70;;;10.60;99.90;;;;;;5023184;28;20045;-76
2023/05/25 02:46:59;;;;;;;11.10;5.30;;;10.50;99.90;;;;;;5038861;28;20049;-77
2023/05/25 02:49:25;;;;;;;12.35;5.55;;;10.50;99.90;;;;;;5022157;28;20166;-78
2023/05/25 02:51:51;;;;;;;11.05;5.75;;;10.50;99.90;;;;;;5038969;28;20156;-77
2023/05/25 02:54:17;;;;;;;12.43;6.80;;;10.50;99.90;;;;;;5042639;28;20083;-76
2023/05/25 02:56:43;;;;;;;14.40;6.55;;;10.50;99.90;;;;;;5040990;28;20550;-76
2023/05/25 02:59:09;;;;;;;15.23;7.60;;;10.50;99.90;;;;;;5003292;28;20102;-78
2023/05/25 03:01:35;;;;;;;14.57;7.32;;;10.50;99.90;;;;;;5037859;28;20059;-77
2023/05/25 03:04:01;;;;;;;16.63;8.07;;;10.40;99.90;;;;;;5021660;28;20515;-76
2023/05/25 03:06:27;;;;;;;14.82;9.02;;;10.40;99.90;;;;;;5038958;28;20072;-76
2023/05/25 03:08:52;;;;;;;18.98;8.20;;;10.40;99.90;;;;;;5054059;28;20120;-76
2023/05/25 03:11:18;;;;;;;14.40;8.73;;;10.40;99.90;;;;;;5018753;28;20514;-77
2023/05/25 03:13:44;;;;;;;18.25;8.38;;;10.30;99.90;;;;;;5037996;28;20503;-77
2023/05/25 03:16:09;;;;;;;16.58;7.90;;;10.30;99.90;;;;;;5022606;28;20598;-77
2023/05/25 03:18:35;;;;;;;17.58;8.10;;;10.30;99.90;;;;;;5039414;28;20052;-76
2023/05/25 03:21:01;;;;;;;16.48;7.32;;;10.30;99.90;;;;;;5040275;28;20076;-76
2023/05/25 03:23:28;;;;;;;15.32;7.13;;;10.30;99.90;;;;;;5056637;28;21223;-77
2023/05/25 03:25:56;;;;;;;14.45;7.20;;;10.30;99.90;;;;;;5040412;28;20041;-76
2023/05/25 03:28:22;;;;;;;13.30;7.07;;;10.30;99.90;;;;;;5039589;28;20059;-76
2023/05/25 03:30:48;;;;;;;13.02;6.68;;;10.30;99.90;;;;;;5039248;28;20037;-77
2023/05/25 03:33:14;;;;;;;15.27;8.20;;;10.30;99.90;;;;;;5041246;28;20060;-79
2023/05/25 03:35:40;;;;;;;20.98;7.65;;;10.30;99.90;;;;;;5072821;28;20049;-77
2023/05/25 03:38:06;;;;;;;14.60;7.50;;;10.30;99.90;;;;;;5040404;28;20055;-76
2023/05/25 03:40:32;;;;;;;13.88;7.55;;;10.30;99.90;;;;;;4987675;28;20045;-76
2023/05/25 03:42:57;;;;;;;15.70;6.82;;;10.30;99.90;;;;;;5024152;28;20049;-78
2023/05/25 03:45:23;;;;;;;17.48;6.95;;;10.30;99.90;;;;;;5005438;28;20064;-78
2023/05/25 03:47:49;;;;;;;13.65;6.85;;;10.30;99.90;;;;;;5040649;28;20518;-77
2023/05/25 03:50:15;;;;;;;15.95;6.35;;;10.30;99.90;;;;;;5028114;28;20044;-78
2023/05/25 03:52:40;;;;;;;15.25;6.13;;;10.30;99.90;;;;;;5038273;28;20520;-76
2023/05/25 03:55:06;;;;;;;12.40;5.95;;;10.30;99.90;;;;;;5005597;28;20061;-76
2023/05/25 03:57:32;;;;;;;12.63;6.05;;;10.30;99.90;;;;;;5005748;28;20059;-78
2023/05/25 03:59:58;;;;;;;16.05;6.28;;;10.40;99.90;;;;;;5037221;28;20029;-78
2023/05/25 04:02:24;;;;;;;13.10;5.53;;;10.40;99.90;;;;;;5019103;28;20053;-77
2023/05/25 04:04:52;;;;;;;9.98;6.22;;;10.40;99.90;;;;;;5005179;28;20486;-77
2023/05/25 04:07:19;;;;;;;11.48;5.03;;;10.40;99.90;;;;;;5036250;28;20084;-76
2023/05/25 04:09:44;;;;;;;16.83;6.20;;;10.40;99.90;;;;;;5038826;28;20159;-78
2023/05/25 04:12:10;;;;;;;11.23;5.38;;;10.40;99.90;;;;;;5038515;28;20095;-76
2023/05/25 04:14:36;;;;;;;10.30;5.40;;;10.50;99.90;;;;;;5021699;28;20053;-76
2023/05/25 04:17:02;;;;;;;11.52;5.55;;;10.50;99.90;;;;;;5021794;28;20072;-77
2023/05/25 04:19:27;;;;;;;12.30;5.60;;;10.50;99.90;;;;;;5038845;28;21952;-77
2023/05/25 04:21:54;;;;;;;13.82;4.85;;;10.50;99.90;;;;;;5034408;28;20064;-78
2023/05/25 04:24:21;;;;;;;13.98;5.30;;;10.60;99.90;;;;;;5002377;28;20041;-77
2023/05/25 04:26:47;;;;;;;12.07;5.13;;;10.60;99.90;;;;;;5036980;28;20072;-79
2023/05/25 04:29:13;;;;;;;14.80;5.60;;;10.70;99.90;;;;;;5035364;28;20808;-77
2023/05/25 04:31:39;;;;;;;10.75;4.97;;;10.70;99.90;;;;;;5035582;28;20045;-78
2023/05/25 04:34:08;;;;;;;11.90;6.50;;;10.80;99.90;;;;;;5053604;28;20157;-76
2023/05/25 04:36:37;;;;;;;17.85;7.35;;;10.90;99.90;;;;;;5054503;28;20076;-79
2023/05/25 04:39:04;;;;;;;12.70;6.15;;;11.00;99.90;;;;;;5020867;28;21342;-81
2023/05/25 04:41:30;;;;;;;13.27;7.07;;;11.10;99.90;;;;;;5039201;28;20072;-80
2023/05/25 04:43:56;;;;;;;14.25;6.43;;;11.20;99.90;;;;;;5057061;28;20053;-82
2023/05/25 04:46:24;;;;;;;16.73;6.40;;;11.20;99.90;;;;;;5057060;28;20114;-82
2023/05/25 04:48:51;;;;;;;13.93;6.07;;;11.30;99.90;;;;;;5009247;28;20091;-81
2023/05/25 04:51:16;;;;;;;15.70;6.78;;;11.40;99.90;;;;;;5024782;28;20049;-81
2023/05/25 04:53:42;;;;;;;14.57;5.90;;;11.50;99.90;;;;;;5042174;28;20047;-81
2023/05/25 04:56:08;;;;;;;12.65;6.88;;;11.50;99.90;;;;;;5024800;28;20045;-79
2023/05/25 04:58:33;;;;;;;12.63;5.78;;;11.60;99.90;;;;;;5041224;28;20049;-80
2023/05/25 05:01:00;;;;;;;15.30;5.68;;;11.70;99.90;;;;;;4989617;28;20052;-80
2023/05/25 05:03:26;;;;;;;16.17;6.40;;;11.20;99.90;;;;;;5058969;28;20611;-80
2023/05/25 05:05:52;;;;;;;12.60;6.15;;;10.90;99.90;;;;;;5057383;28;20051;-80
2023/05/25 05:08:17;;;;;;;15.48;6.13;;;12.00;99.90;;;;;;5040613;28;20103;-81
2023/05/25 05:10:43;;;;;;;14.35;5.65;;;12.10;99.90;;;;;;5014333;28;20045;-82
2023/05/25 05:13:10;;;;;;;12.45;5.78;;;12.10;99.90;;;;;;5027664;28;20417;-81
2023/05/25 05:15:35;;;;;;;12.95;5.80;;;12.20;99.90;;;;;;5029231;28;20415;-83
2023/05/25 05:18:01;;;;;;;13.00;5.45;;;12.30;99.90;;;;;;5060197;28;20049;-77
2023/05/25 05:20:27;;;;;;;13.52;5.97;;;12.20;99.90;;;;;;5028716;28;20488;-76
2023/05/25 05:22:53;;;;;;;12.00;6.18;;;12.30;99.90;;;;;;5027651;28;20084;-77
2023/05/25 05:25:19;;;;;;;13.05;5.72;;;12.30;99.90;;;;;;4993514;28;20064;-77
2023/05/25 05:27:44;;;;;;;14.48;6.28;;;12.90;99.90;;;;;;5028286;28;20440;-75
2023/05/25 05:30:10;;;;;;;10.23;5.05;;;12.40;99.90;;;;;;5077243;28;20064;-75
2023/05/25 05:32:36;;;;;;;9.82;4.70;;;12.50;99.90;;;;;;5043552;28;20044;-74
2023/05/25 05:35:02;;;;;;;17.70;5.25;;;12.50;99.90;;;;;;5029419;28;20045;-75
2023/05/25 05:37:28;;;;;;;14.55;5.22;;;12.60;99.90;;;;;;5010423;28;20096;-76
2023/05/25 05:39:55;;;;;;;11.82;4.57;;;12.60;99.90;;;;;;5043789;28;20084;-74
2023/05/25 05:42:22;;;;;;;11.38;4.68;;;12.70;99.90;;;;;;5011180;28;20041;-73
2023/05/25 05:44:47;;;;;;;13.45;4.53;;;12.70;99.90;;;;;;5044031;28;20048;-74
2023/05/25 05:47:13;;;;;;;15.40;5.15;;;12.80;99.90;;;;;;5012383;28;20095;-73
2023/05/25 05:49:39;;;;;;;12.85;4.55;;;12.90;99.90;;;;;;5044216;28;20085;-75
2023/05/25 05:52:07;;;;;;;10.93;4.22;;;13.00;99.90;;;;;;5043800;28;20916;-74
2023/05/25 05:54:36;;;;;;;10.38;4.68;;;13.10;99.90;;;;;;5044892;28;20542;-75
2023/05/25 05:57:02;;;;;;;14.05;5.25;;;12.10;99.90;;;;;;5043559;28;20064;-74
2023/05/25 05:59:27;;;;;;;14.25;5.03;;;13.30;99.90;;;;;;5004230;28;20045;-75
2023/05/25 06:01:53;;;;;;;10.98;4.68;;;13.40;99.90;;;;;;5041398;28;20084;-74
2023/05/25 06:04:19;;;;;;;14.63;5.82;;;13.50;99.90;;;;;;5073662;28;20053;-74
2023/05/25 06:06:45;;;;;;;16.45;4.85;;;13.60;99.90;;;;;;5027275;28;20041;-75
2023/05/25 06:09:12;;;;;;;11.25;4.60;;;13.60;99.90;;;;;;5008251;28;20578;-75
2023/05/25 06:11:41;;;;;;;15.05;4.53;;;13.70;99.90;;;;;;5041261;28;20117;-75
2023/05/25 06:14:13;;;;;;;13.98;4.20;;;13.70;99.90;;;;;;5040418;28;20056;-75
2023/05/25 06:16:44;;;;;;;12.90;5.10;;;13.90;99.90;;;;;;5045555;28;20054;-75
2023/05/25 06:19:10;;;;;;;12.10;3.92;;;12.90;99.90;;;;;;5039165;28;20076;-77
2023/05/25 06:21:41;;;;;;;8.52;3.35;;;13.90;99.90;;;;;;5040103;28;20625;-75
2023/05/25 06:24:26;;;;;;;13.32;3.67;;;14.00;99.90;;;;;;5038940;28;20056;-76
2023/05/25 06:26:52;;;;;;;10.85;3.55;;;14.00;99.90;;;;;;5041063;28;20042;-73
2023/05/25 06:29:19;;;;;;;9.90;3.00;;;14.10;99.90;;;;;;5037521;28;20049;-74
2023/05/25 06:31:48;;;;;;;9.10;3.17;;;14.10;99.90;;;;;;5055342;28;20045;-78
2023/05/25 06:34:15;;;;;;;9.85;3.53;;;14.20;99.90;;;;;;5037778;28;20110;-78
2023/05/25 06:36:41;;;;;;;10.15;3.10;;;14.20;99.90;;;;;;5039714;28;20053;-74
2023/05/25 06:39:07;;;;;;;13.35;3.88;;;14.30;99.90;;;;;;5022803;28;20387;-75
2023/05/25 06:41:33;;;;;;;11.07;2.88;;;14.40;99.90;;;;;;5040354;28;20046;-76
2023/05/25 06:43:58;;;;;;;10.82;3.30;;;14.40;99.90;;;;;;5037649;28;20696;-76
2023/05/25 06:46:24;;;;;;;9.27;3.20;;;14.40;99.90;;;;;;5025832;28;20484;-74
2023/05/25 06:48:50;;;;;;;9.73;3.00;;;14.50;99.90;;;;;;5024177;28;20049;-75
2023/05/25 06:51:20;;;;;;;10.23;3.30;;;14.50;99.90;;;;;;5044677;28;20049;-76
2023/05/25 06:53:46;;;;;;;14.07;3.40;;;14.60;99.90;;;;;;5042760;28;20053;-74
2023/05/25 06:56:17;;;;;;;10.82;3.05;;;14.60;99.90;;;;;;5041788;28;20509;-74
2023/05/25 06:58:43;;;;;;;9.38;3.10;;;14.60;99.90;;;;;;5009719;28;20040;-74
2023/05/25 07:01:08;;;;;;;8.73;3.13;;;14.60;99.90;;;;;;5045619;28;20049;-71
2023/05/25 07:03:35;;;;;;;8.93;2.97;;;14.60;99.90;;;;;;5044873;28;20142;-76
2023/05/25 07:06:01;;;;;;;9.75;3.25;;;14.70;99.90;;;;;;5023536;28;20174;-76
2023/05/25 07:08:26;;;;;;;9.15;3.10;;;14.70;99.90;;;;;;5045019;28;20509;-77
2023/05/25 07:10:52;;;;;;;11.57;3.30;;;14.70;99.90;;;;;;5047226;28;20049;-76
2023/05/25 07:13:18;;;;;;;6.68;2.58;;;14.80;99.90;;;;;;5029757;28;20369;-77
2023/05/25 07:15:43;;;;;;;11.65;3.35;;;14.90;99.90;;;;;;5029891;28;20057;-76
2023/05/25 07:18:11;;;;;;;10.35;3.15;;;15.00;99.90;;;;;;5029499;28;20444;-76
2023/05/25 07:20:40;;;;;;;9.93;3.10;;;15.00;99.90;;;;;;5047233;28;20395;-75
2023/05/25 07:23:08;;;;;;;12.13;3.20;;;15.10;99.90;;;;;;5041834;28;20415;-78
2023/05/25 07:25:35;;;;;;;11.18;3.10;;;15.20;99.90;;;;;;5046301;28;20502;-77
2023/05/25 07:28:01;;;;;;;10.90;3.10;;;15.20;99.90;;;;;;5037946;28;20054;-78
2023/05/25 07:30:27;;;;;;;12.82;3.25;;;15.30;99.90;;;;;;5046382;28;20466;-77
2023/05/25 07:32:53;;;;;;;14.15;3.50;;;15.40;99.90;;;;;;5031386;28;20052;-77
2023/05/25 07:35:18;;;;;;;10.75;3.22;;;15.40;99.90;;;;;;5014263;28;20045;-77
2023/05/25 07:37:44;;;;;;;13.32;3.88;;;15.50;99.90;;;;;;5046540;28;20574;-76
2023/05/25 07:40:10;;;;;;;14.50;3.60;;;15.50;99.90;;;;;;5022213;28;20123;-77
2023/05/25 07:42:36;;;;;;;12.07;3.70;;;15.60;99.90;;;;;;5047278;28;20519;-77
2023/05/25 07:45:02;;;;;;;9.63;3.50;;;15.60;99.90;;;;;;5029698;28;20045;-76
2023/05/25 07:47:28;;;;;;;12.82;3.50;;;15.70;99.90;;;;;;5029450;28;20049;-77
2023/05/25 07:49:53;;;;;;;11.00;3.38;;;15.70;99.90;;;;;;5047063;28;20079;-76
2023/05/25 07:52:25;;;;;;;14.90;3.65;;;15.70;99.90;;;;;;5047425;28;20056;-76
2023/05/25 07:54:52;;;;;;;10.23;3.22;;;15.70;99.90;;;;;;5030223;28;20041;-75
2023/05/25 07:57:18;;;;;;;11.65;3.38;;;15.80;99.90;;;;;;5030245;28;20123;-76
2023/05/25 07:59:44;;;;;;;8.48;3.00;;;15.80;99.90;;;;;;5030053;28;20125;-76
2023/05/25 08:02:09;;;;;;;14.25;4.00;;;15.80;99.90;;;;;;5031097;28;20076;-76
2023/05/25 08:04:36;;;;;;;11.43;3.10;;;15.80;99.90;;;;;;5030603;28;20644;-75
2023/05/25 08:07:02;;;;;;;18.65;4.70;;;15.80;99.90;;;;;;5048694;28;20389;-76
2023/05/25 08:09:29;;;;;;;12.63;3.72;;;15.90;99.90;;;;;;5045976;28;20063;-76
2023/05/25 08:11:55;;;;;;;14.48;3.67;;;15.90;99.90;;;;;;5014109;28;20057;-77
2023/05/25 08:14:22;;;;;;;16.45;3.75;;;16.00;99.90;;;;;;5046730;28;20115;-78
2023/05/25 08:16:51;;;;;;;14.52;3.83;;;16.10;99.90;;;;;;5063437;28;20044;-78
2023/05/25 08:19:19;;;;;;;15.60;3.80;;;16.20;99.90;;;;;;5045356;28;20147;-78
2023/05/25 08:21:44;;;;;;;12.90;3.17;;;16.30;99.90;;;;;;5030737;28;20052;-77
2023/05/25 08:24:10;;;;;;;14.70;3.88;;;16.50;99.90;;;;;;5013889;28;20049;-78
2023/05/25 08:26:37;;;;;;;20.20;4.20;;;16.70;99.90;;;;;;5063321;28;20606;-77
2023/05/25 08:29:03;;;;;;;15.85;4.43;;;16.80;99.90;;;;;;5029697;28;20037;-77
2023/05/25 08:31:31;;;;;;;17.77;3.90;;;16.90;99.90;;;;;;5046792;28;20167;-77
2023/05/25 08:33:57;;;;;;;13.75;3.95;;;17.10;99.90;;;;;;5046875;28;20479;-77
2023/05/25 08:36:24;;;;;;;16.52;3.63;;;17.40;99.90;;;;;;5062939;28;20076;-76
2023/05/25 08:38:50;;;;;;;14.82;4.30;;;17.70;99.90;;;;;;5046526;28;20049;-77
2023/05/25 08:41:22;;;;;;;15.90;4.45;;;18.10;99.90;;;;;;5043811;28;20064;-77
2023/05/25 08:43:48;;;;;;;17.00;3.97;;;18.50;99.90;;;;;;5063297;28;20435;-77
2023/05/25 08:46:17;;;;;;;16.63;3.65;;;19.00;99.90;;;;;;5046766;28;20614;-77
2023/05/25 08:48:50;;;;;;;14.00;3.75;;;19.40;99.90;;;;;;5045136;28;20052;-77
2023/05/25 08:51:17;;;;;;;15.43;3.92;;;19.70;99.90;;;;;;5045732;28;20045;-77
2023/05/25 08:53:43;;;;;;;14.50;4.38;;;20.00;99.90;;;;;;5021724;28;20460;-77
2023/05/25 08:56:17;;;;;;;15.30;3.80;;;19.80;99.90;;;;;;5046424;28;20496;-78
2023/05/25 08:58:47;;;;;;;11.88;3.55;;;19.60;99.90;;;;;;5045301;28;20096;-77
2023/05/25 09:01:17;;;;;;;17.63;3.78;;;19.50;99.90;;;;;;5045969;28;20514;-78
2023/05/25 09:03:43;;;;;;;17.67;4.07;;;19.40;99.90;;;;;;5046490;28;20049;-78
2023/05/25 09:06:09;;;;;;;17.02;3.90;;;19.50;99.90;;;;;;5045663;28;20063;-77
2023/05/25 09:08:38;;;;;;;18.65;3.85;;;19.80;99.90;;;;;;4988813;28;20124;-77
2023/05/25 09:11:05;;;;;;;14.57;3.38;;;20.10;99.90;;;;;;5046203;28;20061;-76
2023/05/25 09:13:31;;;;;;;14.90;3.55;;;20.40;99.90;;;;;;5047049;28;20088;-76
2023/05/25 09:15:57;;;;;;;13.93;3.95;;;20.70;99.90;;;;;;5030244;28;20052;-75
2023/05/25 09:18:23;;;;;;;11.88;3.55;;;20.90;99.90;;;;;;5012631;28;20107;-77
2023/05/25 09:20:49;;;;;;;15.93;3.65;;;21.00;99.90;;;;;;5030592;28;20491;-76
2023/05/25 09:23:16;;;;;;;15.38;3.78;;;20.70;99.30;;;;;;5046066;28;20045;-76
2023/05/25 09:25:43;;;;;;;11.57;3.25;;;20.70;99.00;;;;;;5022342;28;20510;-76
2023/05/25 09:28:08;;;;;;;13.75;3.67;;;20.80;98.80;;;;;;5030919;28;20061;-77
2023/05/25 09:30:35;;;;;;;13.20;3.53;;;21.00;98.60;;;;;;5030394;28;20071;-76
2023/05/25 09:33:17;;;;;;;14.80;3.78;;;21.20;97.90;;;;;;5045553;28;20045;-76
2023/05/25 09:35:45;;;;;;;14.10;4.03;;;21.40;95.80;;;;;;5031112;28;20131;-76
2023/05/25 09:38:15;;;;;;;12.65;3.90;;;21.50;96.10;;;;;;5046322;28;20318;-75
2023/05/25 09:40:41;;;;;;;12.60;3.53;;;21.70;95.70;;;;;;5046503;28;20233;-75
2023/05/25 09:43:07;;;;;;;12.13;3.65;;;21.90;95.40;;;;;;5029253;28;20049;-76
2023/05/25 09:45:34;;;;;;;13.95;3.70;;;22.00;94.80;;;;;;5037511;28;20403;-76
2023/05/25 09:48:01;;;;;;;12.25;3.97;;;22.10;94.20;;;;;;5014666;28;20056;-76
2023/05/25 09:50:30;;;;;;;11.80;3.45;;;22.00;94.10;;;;;;5009949;28;20059;-76
2023/05/25 09:52:59;;;;;;;14.90;3.42;;;22.10;93.60;;;;;;5043057;28;20045;-72
2023/05/25 09:55:28;;;;;;;13.52;3.92;;;22.40;93.70;;;;;;5042561;28;21511;-73
2023/05/25 09:57:55;;;;;;;11.90;3.22;;;22.40;92.80;;;;;;5045528;28;20047;-72
2023/05/25 10:00:25;;;;;;;13.90;3.67;;;22.20;93.10;;;;;;5048971;28;20056;-72
2023/05/25 10:02:52;;;;;;;14.00;3.95;;;22.00;92.80;;;;;;5032803;28;20052;-72
2023/05/25 10:05:22;;;;;;;11.82;3.17;;;22.00;92.80;;;;;;5065693;28;20199;-72
2023/05/25 10:07:54;;;;;;;15.13;3.50;;;22.10;92.50;;;;;;5047740;28;20120;-73
2023/05/25 10:10:28;;;;;;;11.20;3.45;;;22.30;91.90;;;;;;5030252;28;20389;-72
2023/05/25 10:12:56;;;;;;;12.25;3.45;;;22.50;91.60;;;;;;5048032;28;20090;-74
2023/05/25 10:15:22;;;;;;;13.50;3.28;;;22.50;90.70;;;;;;5050288;28;20181;-77
2023/05/25 10:17:56;;;;;;;11.05;3.17;;;22.40;90.20;;;;;;5032584;28;20037;-76
2023/05/25 10:20:39;;;;;;;13.00;3.03;;;22.50;88.20;;;;;;5069907;28;20121;-78
2023/05/25 10:23:18;;;;;;;12.77;3.63;;;22.50;89.40;;;;;;5055713;28;20058;-76
2023/05/25 10:25:47;;;;;;;12.98;3.55;;;22.70;85.90;;;;;;5051346;28;20053;-77
2023/05/25 10:28:26;;;;;;;14.30;3.70;;;23.00;88.10;;;;;;5053996;28;20056;-77
2023/05/25 10:31:07;;;;;;;17.08;4.30;;;23.00;83.50;;;;;;5049683;28;20044;-77
2023/05/25 10:33:33;;;;;;;11.23;3.22;;;23.20;84.20;;;;;;5032350;28;20053;-77
2023/05/25 10:36:02;;;;;;;9.95;3.17;;;23.20;85.70;;;;;;5061002;28;20183;-76
2023/05/25 10:38:30;;;;;;;15.48;4.03;;;23.10;85.00;;;;;;5028475;28;20407;-76
2023/05/25 10:40:59;;;;;;;13.20;3.72;;;23.20;84.60;;;;;;5042739;28;20498;-77
2023/05/25 10:43:26;;;;;;;13.68;4.13;;;23.40;85.10;;;;;;5044175;28;20048;-77
2023/05/25 10:45:54;;;;;;;11.82;3.47;;;23.60;86.00;;;;;;5013120;28;20449;-75
2023/05/25 10:48:20;;;;;;;11.50;3.78;;;23.20;85.00;;;;;;5044438;28;20068;-76
2023/05/25 10:50:50;;;;;;;17.15;4.78;;;23.20;85.10;;;;;;5040502;28;20044;-75
2023/05/25 10:53:20;;;;;;;13.00;3.63;;;23.00;84.50;;;;;;5048052;28;20079;-75
2023/05/25 10:55:45;;;;;;;16.10;3.85;;;23.10;85.30;;;;;;5047278;28;20547;-75
2023/05/25 10:58:13;;;;;;;13.07;3.65;;;23.10;85.30;;;;;;5047514;28;20117;-76
2023/05/25 11:00:39;;;;;;;16.33;3.97;;;23.10;84.80;;;;;;5063382;28;20045;-74
2023/05/25 11:03:05;;;;;;;12.95;3.75;;;23.20;84.80;;;;;;5030508;28;20044;-74
2023/05/25 11:05:37;;;;;;;12.73;3.67;;;23.50;84.20;;;;;;5045966;28;20049;-76
2023/05/25 11:08:05;;;;;;;12.55;3.67;;;23.60;83.30;;;;;;5044187;28;20048;-75
2023/05/25 11:10:49;;;;;;;13.38;4.47;;;23.50;82.20;;;;;;5042502;28;20120;-75
2023/05/25 11:13:30;;;;;;;11.95;3.63;;;23.50;81.20;;;;;;5058865;28;20096;-76
2023/05/25 11:16:19;;;;;;;15.57;3.83;;;23.60;80.00;;;;;;5043769;28;20179;-74
2023/05/25 11:18:59;;;;;;;12.82;3.90;;;23.40;79.60;;;;;;5043554;28;20048;-74
2023/05/25 11:21:25;;;;;;;16.45;4.22;;;23.40;81.80;;;;;;5039306;28;20049;-74
2023/05/25 11:24:02;;;;;;;16.08;4.05;;;23.40;83.00;;;;;;5043496;28;20119;-76
2023/05/25 11:26:30;;;;;;;13.30;3.83;;;23.30;81.60;;;;;;5045459;28;20128;-76
2023/05/25 11:29:00;;;;;;;14.30;4.00;;;23.40;82.30;;;;;;5041792;28;20116;-75
2023/05/25 11:31:31;;;;;;;12.90;4.00;;;23.50;82.20;;;;;;5025305;28;20322;-75
2023/05/25 11:33:59;;;;;;;15.05;3.92;;;23.50;81.50;;;;;;5060126;28;20060;-75
2023/05/25 11:36:30;;;;;;;15.63;3.90;;;23.40;82.40;;;;;;5044322;28;20041;-74
2023/05/25 11:38:56;;;;;;;15.75;3.85;;;23.50;82.60;;;;;;5024797;28;20037;-75
2023/05/25 11:41:22;;;;;;;13.82;4.13;;;23.50;81.90;;;;;;5043581;28;20076;-75
2023/05/25 11:43:52;;;;;;;14.30;4.30;;;23.60;81.90;;;;;;5044044;28;20570;-74
2023/05/25 11:46:19;;;;;;;13.75;3.88;;;23.70;81.80;;;;;;5025385;28;20462;-74
2023/05/25 11:48:49;;;;;;;13.73;3.95;;;23.40;81.30;;;;;;5027745;28;20048;-75
2023/05/25 11:51:15;;;;;;;13.77;4.05;;;23.50;80.60;;;;;;5041122;28;20056;-77
2023/05/25 11:53:42;;;;;;;13.95;3.72;;;23.60;80.90;;;;;;5042400;28;20098;-75
2023/05/25 11:56:08;;;;;;;10.32;3.28;;;23.80;80.30;;;;;;5029198;28;20074;-75
2023/05/25 11:58:34;;;;;;;11.43;3.40;;;24.00;79.50;;;;;;5044472;28;20509;-76
2023/05/25 12:01:13;;;;;;;13.30;3.38;;;23.80;79.20;;;;;;5012425;28;20120;-76
2023/05/25 12:03:38;;;;;;;15.68;3.83;;;23.90;78.70;;;;;;5042912;28;20116;-75
2023/05/25 12:06:28;;;;;;;13.98;3.60;;;24.00;79.50;;;;;;5029589;28;20187;-74
2023/05/25 12:08:56;;;;;;;14.45;3.45;;;24.20;79.00;;;;;;5042348;28;20504;-76
2023/05/25 12:11:33;;;;;;;13.25;3.88;;;24.00;78.00;;;;;;5045274;28;20041;-75
2023/05/25 12:14:02;;;;;;;10.20;3.22;;;24.00;77.60;;;;;;5028641;28;20068;-76
2023/05/25 12:16:37;;;;;;;12.27;3.60;;;23.80;78.10;;;;;;5063954;28;20474;-75
2023/05/25 12:19:04;;;;;;;15.15;4.05;;;23.90;78.00;;;;;;5046053;28;20103;-76
2023/05/25 12:21:33;;;;;;;12.10;3.45;;;24.20;77.50;;;;;;5027021;28;20114;-76
2023/05/25 12:24:00;;;;;;;14.32;3.75;;;24.30;76.80;;;;;;5043404;28;20571;-76
2023/05/25 12:26:27;;;;;;;14.90;3.53;;;24.50;76.20;;;;;;5037261;28;20068;-76
2023/05/25 12:29:04;;;;;;;9.55;3.47;;;24.70;75.40;;;;;;5035103;28;20499;-76
2023/05/25 12:31:40;;;;;;;12.32;3.53;;;24.90;73.90;;;;;;5043050;28;20049;-76
2023/05/25 12:34:08;;;;;;;11.93;3.47;;;24.80;73.50;;;;;;5041436;28;20052;-78
2023/05/25 12:36:46;;;;;;;14.55;3.58;;;24.80;73.80;;;;;;5041082;28;20079;-77
2023/05/25 12:39:14;;;;;;;10.60;3.67;;;24.70;73.90;;;;;;5038691;28;20056;-73
2023/05/25 12:41:47;;;;;;;15.02;4.05;;;24.90;74.10;;;;;;5043463;28;20059;-77